createdAt,value
2022-11-24T00:01:26.163Z,99478.44
2022-11-24T00:04:04.597Z,99477.34
2022-11-24T00:06:35.635Z,99475.05
2022-11-24T00:09:05.557Z,99477.25
2022-11-24T00:11:40.094Z,99483.36
2022-11-24T00:14:10.603Z,99485.19
2022-11-24T00:16:39.344Z,99481.42
2022-11-24T00:19:09.580Z,99480.17
2022-11-24T00:21:38.795Z,99486.17
2022-11-24T00:24:07.182Z,99489.88
2022-11-24T00:26:37.912Z,99493.28
2022-11-24T00:29:08.085Z,99490.42
2022-11-24T00:31:39.800Z,99488.48
2022-11-24T00:34:12.414Z,99488.77
2022-11-24T00:36:41.775Z,99491.34
2022-11-24T00:39:15.556Z,99491.55
2022-11-24T00:41:45.040Z,99492.33
2022-11-24T00:44:13.672Z,99493.80
2022-11-24T00:46:43.115Z,99495.17
2022-11-24T00:49:12.067Z,99486.83
2022-11-24T00:51:40.243Z,99492.36
2022-11-24T00:54:09.746Z,99491.11
2022-11-24T00:56:38.125Z,99491.30
2022-11-24T00:59:06.605Z,99493.64
2022-11-24T01:01:34.919Z,99489.95
2022-11-24T01:04:04.077Z,99492.74
2022-11-24T01:06:33.002Z,99498.18
2022-11-24T01:09:02.587Z,99500.09
2022-11-24T01:11:55.166Z,99500.14
2022-11-24T01:14:25.622Z,99502.31
2022-11-24T01:16:54.943Z,99505.30
2022-11-24T01:19:23.949Z,99500.71
2022-11-24T01:21:52.527Z,99500.27
2022-11-24T01:24:21.217Z,99501.33
2022-11-24T01:26:49.599Z,99496.30
2022-11-24T01:29:17.915Z,99502.59
2022-11-24T01:31:46.259Z,99502.83
2022-11-24T01:34:14.421Z,99505.10
2022-11-24T01:36:43.007Z,99503.29
2022-11-24T01:39:11.396Z,99511.45
2022-11-24T01:41:39.973Z,99510.17
2022-11-24T01:44:23.134Z,99512.70
2022-11-24T01:46:57.727Z,99509.98
2022-11-24T01:49:41.776Z,99504.92
2022-11-24T01:52:19.155Z,99505.66
2022-11-24T01:54:55.407Z,99504.58
2022-11-24T01:57:30.222Z,99499.92
2022-11-24T02:00:11.913Z,99501.44
2022-11-24T02:02:45.399Z,99492.95
2022-11-24T02:05:22.115Z,99495.35
2022-11-24T02:07:52.856Z,99497.59
2022-11-24T02:10:21.944Z,99501.91
2022-11-24T02:12:53.723Z,99496.08
2022-11-24T02:15:23.003Z,99493.30
2022-11-24T02:17:51.392Z,99496.50
2022-11-24T02:20:20.063Z,99497.84
2022-11-24T02:23:01.850Z,99493.69
2022-11-24T02:25:49.585Z,99490.36
2022-11-24T02:28:22.185Z,99491.58
2022-11-24T02:30:51.672Z,99491.85
2022-11-24T02:33:22.510Z,99491.48
2022-11-24T02:35:51.194Z,99494.80
2022-11-24T02:38:19.476Z,99499.35
2022-11-24T02:40:49.801Z,99499.21
2022-11-24T02:43:22.783Z,99503.73
2022-11-24T02:45:51.364Z,99512.64
2022-11-24T02:48:19.866Z,99511.40
2022-11-24T02:50:48.334Z,99511.31
2022-11-24T02:53:16.607Z,99511.16
2022-11-24T02:55:45.095Z,99512.42
2022-11-24T02:58:15.096Z,99513.88
2022-11-24T03:00:43.596Z,99511.52
2022-11-24T03:03:12.163Z,99516.02
2022-11-24T03:05:41.069Z,99517.30
2022-11-24T03:08:09.949Z,99517.61
2022-11-24T03:10:38.370Z,99512.16
2022-11-24T03:13:06.573Z,99515.57
2022-11-24T03:15:35.149Z,99514.80
2022-11-24T03:18:03.985Z,99515.73
2022-11-24T03:20:32.655Z,99518.31
2022-11-24T03:23:00.841Z,99522.13
2022-11-24T03:25:30.043Z,99527.05
2022-11-24T03:27:58.834Z,99517.52
2022-11-24T03:30:28.049Z,99520.79
2022-11-24T03:32:56.505Z,99520.49
2022-11-24T03:35:24.717Z,99521.23
2022-11-24T03:37:52.956Z,99524.61
2022-11-24T03:40:21.223Z,99524.86
2022-11-24T03:42:49.823Z,99527.37
2022-11-24T03:48:08.651Z,99528.55
2022-11-24T03:50:36.867Z,99526.98
2022-11-24T03:53:05.154Z,99531.41
2022-11-24T03:55:33.736Z,99527.15
2022-11-24T03:58:02.761Z,99526.73
2022-11-24T04:00:32.157Z,99524.71
2022-11-24T04:03:01.308Z,99526.92
2022-11-24T04:05:29.797Z,99529.73
2022-11-24T04:07:58.391Z,99533.17
2022-11-24T04:10:26.969Z,99535.35
2022-11-24T04:12:55.556Z,99536.57
2022-11-24T04:15:23.780Z,99538.73
2022-11-24T04:17:55.717Z,99535.20
2022-11-24T04:20:24.782Z,99534.27
2022-11-24T04:22:53.264Z,99536.70
2022-11-24T04:25:23.048Z,99536.03
2022-11-24T04:27:55.059Z,99538.08
2022-11-24T04:30:25.634Z,99539.33
2022-11-24T04:32:54.779Z,99545.13
2022-11-24T04:35:23.427Z,99547.92
2022-11-24T04:37:52.929Z,99554.54
2022-11-24T04:40:21.727Z,99553.61
2022-11-24T04:42:57.365Z,99561.34
2022-11-24T04:45:25.895Z,99566.76
2022-11-24T04:47:54.380Z,99570.31
2022-11-24T04:50:23.288Z,99573.33
2022-11-24T04:52:52.780Z,99574.98
2022-11-24T04:55:21.249Z,99579.79
2022-11-24T04:57:49.626Z,99575.76
2022-11-24T05:00:20.299Z,99575.82
2022-11-24T05:02:48.752Z,99573.70
2022-11-24T05:05:17.637Z,99573.93
2022-11-24T05:07:46.050Z,99582.02
2022-11-24T05:10:33.491Z,99581.06
2022-11-24T05:13:10.314Z,99582.39
2022-11-24T05:15:40.647Z,99581.84
2022-11-24T05:18:12.690Z,99586.36
2022-11-24T05:20:41.703Z,99592.85
2022-11-24T05:23:10.389Z,99599.52
2022-11-24T05:25:40.521Z,99599.80
2022-11-24T05:28:12.685Z,99600.92
2022-11-24T05:30:42.281Z,99606.16
2022-11-24T05:33:19.177Z,99609.02
2022-11-24T05:35:51.982Z,99609.85
2022-11-24T05:38:22.889Z,99608.66
2022-11-24T05:40:51.669Z,99611.27
2022-11-24T05:43:20.159Z,99612.31
2022-11-24T05:45:50.167Z,99617.55
2022-11-24T05:48:19.370Z,99617.90
2022-11-24T05:50:55.230Z,99615.83
2022-11-24T05:53:24.560Z,99621.11
2022-11-24T05:55:53.716Z,99623.30
2022-11-24T05:58:23.173Z,99619.52
2022-11-24T06:00:52.210Z,99623.78
2022-11-24T06:03:20.757Z,99620.03
2022-11-24T06:05:49.654Z,99638.96
2022-11-24T06:08:18.493Z,99646.66
2022-11-24T06:10:47.784Z,99647.11
2022-11-24T06:13:17.473Z,99651.46
2022-11-24T06:15:46.907Z,99658.17
2022-11-24T06:18:15.413Z,99664.35
2022-11-24T06:21:02.805Z,99669.70
2022-11-24T06:23:34.156Z,99682.67
2022-11-24T06:26:02.976Z,99682.88
2022-11-24T06:28:32.446Z,99690.79
2022-11-24T06:31:02.973Z,99695.20
2022-11-24T06:33:36.749Z,99696.90
2022-11-24T06:36:08.666Z,99702.45
2022-11-24T06:38:37.846Z,99704.40
2022-11-24T06:41:15.414Z,99709.64
2022-11-24T06:43:45.151Z,99709.16
2022-11-24T06:46:15.584Z,99713.47
2022-11-24T06:48:44.358Z,99715.82
2022-11-24T06:51:13.914Z,99716.38
2022-11-24T06:53:42.657Z,99713.89
2022-11-24T06:56:16.738Z,99714.00
2022-11-24T06:58:48.245Z,99718.14
2022-11-24T07:01:23.873Z,99719.37
2022-11-24T07:03:54.490Z,99720.02
2022-11-24T07:06:25.754Z,99723.70
2022-11-24T07:08:54.516Z,99726.38
2022-11-24T07:11:24.599Z,99725.13
2022-11-24T07:13:59.489Z,99729.76
2022-11-24T07:16:29.796Z,99738.83
2022-11-24T07:19:01.107Z,99743.70
2022-11-24T07:21:31.275Z,99742.61
2022-11-24T07:24:00.469Z,99743.31
2022-11-24T07:26:29.526Z,99744.59
2022-11-24T07:28:58.462Z,99742.23
2022-11-24T07:31:27.242Z,99747.04
2022-11-24T07:33:56.881Z,99752.95
2022-11-24T07:36:27.645Z,99748.64
2022-11-24T07:38:58.089Z,99748.13
2022-11-24T07:41:28.565Z,99754.11
2022-11-24T07:43:57.642Z,99752.77
2022-11-24T07:46:26.596Z,99756.13
2022-11-24T07:48:55.359Z,99753.49
2022-11-24T07:51:24.531Z,99754.63
2022-11-24T07:53:53.710Z,99749.62
2022-11-24T07:56:22.516Z,99749.36
2022-11-24T07:58:53.160Z,99747.02
2022-11-24T08:01:22.471Z,99748.15
2022-11-24T08:03:52.043Z,99752.14
2022-11-24T08:06:27.187Z,99755.95
2022-11-24T08:08:58.243Z,99756.87
2022-11-24T08:11:27.631Z,99759.81
2022-11-24T08:13:56.551Z,99762.48
2022-11-24T08:16:25.464Z,99763.64
2022-11-24T08:18:55.683Z,99766.70
2022-11-24T08:21:24.932Z,99767.88
2022-11-24T08:23:57.297Z,99762.36
2022-11-24T08:26:26.313Z,99769.58
2022-11-24T08:28:58.413Z,99771.98
2022-11-24T08:31:33.813Z,99778.36
2022-11-24T08:34:05.471Z,99778.98
2022-11-24T08:36:36.382Z,99778.05
2022-11-24T08:39:04.989Z,99778.65
2022-11-24T08:41:33.566Z,99776.66
2022-11-24T08:44:01.942Z,99783.36
2022-11-24T08:46:30.622Z,99784.73
2022-11-24T08:48:59.429Z,99786.43
2022-11-24T08:51:28.321Z,99788.55
2022-11-24T08:53:59.171Z,99788.18
2022-11-24T08:56:29.784Z,99789.45
2022-11-24T08:58:58.884Z,99789.15
2022-11-24T09:01:28.147Z,99789.59
2022-11-24T09:03:56.978Z,99790.48
2022-11-24T09:06:27.998Z,99793.97
2022-11-24T09:08:57.305Z,99793.55
2022-11-24T09:11:27.641Z,99792.58
2022-11-24T09:13:56.147Z,99797.55
2022-11-24T09:16:27.964Z,99797.95
2022-11-24T09:19:01.676Z,99804.77
2022-11-24T09:21:34.363Z,99805.17
2022-11-24T09:24:03.052Z,99804.47
2022-11-24T09:26:34.904Z,99801.86
2022-11-24T09:29:05.564Z,99805.15
2022-11-24T09:31:36.591Z,99805.63
2022-11-24T09:34:12.769Z,99807.64
2022-11-24T09:36:41.844Z,99803.89
2022-11-24T09:39:11.133Z,99807.69
2022-11-24T09:42:06.860Z,99810.04
2022-11-24T09:44:52.841Z,99811.06
2022-11-24T09:47:47.337Z,99807.54
2022-11-24T09:50:22.785Z,99805.39
2022-11-24T09:52:54.553Z,99807.65
2022-11-24T09:55:31.833Z,99812.41
2022-11-24T09:58:39.102Z,99810.23
2022-11-24T10:01:19.936Z,99806.23
2022-11-24T10:03:53.081Z,99806.76
2022-11-24T10:06:31.551Z,99806.35
2022-11-24T10:09:34.186Z,99804.84
2022-11-24T10:12:19.238Z,99803.80
2022-11-24T10:18:44.774Z,99808.90
2022-11-24T10:21:45.616Z,99811.57
2022-11-24T10:24:41.243Z,99808.99
2022-11-24T10:27:14.666Z,99809.66
2022-11-24T10:29:45.256Z,99810.61
2022-11-24T10:32:21.040Z,99806.94
2022-11-24T10:34:54.374Z,99801.84
2022-11-24T10:37:32.240Z,99815.30
2022-11-24T10:40:05.180Z,99814.14
2022-11-24T10:42:39.099Z,99820.21
2022-11-24T10:45:15.989Z,99818.08
2022-11-24T10:47:47.370Z,99804.75
2022-11-24T10:50:24.673Z,99811.80
2022-11-24T10:53:19.326Z,99806.85
2022-11-24T10:55:57.542Z,99809.73
2022-11-24T10:58:40.766Z,99809.91
2022-11-24T11:01:15.452Z,99808.88
2022-11-24T11:03:51.148Z,99816.84
2022-11-24T11:06:27.578Z,99813.56
2022-11-24T11:09:08.389Z,99815.80
2022-11-24T11:11:40.206Z,99818.84
2022-11-24T11:14:12.521Z,99814.12
2022-11-24T11:16:46.370Z,99818.56
2022-11-24T11:20:00.089Z,99820.14
2022-11-24T11:22:36.210Z,99818.27
2022-11-24T11:25:18.935Z,99819.30
2022-11-24T11:27:48.647Z,99818.92
2022-11-24T11:36:14.214Z,99809.94
2022-11-24T11:38:44.534Z,99807.19
2022-11-24T11:41:35.138Z,99808.66
2022-11-24T11:44:19.176Z,99804.83
2022-11-24T11:46:47.809Z,99808.84
2022-11-24T11:49:16.967Z,99811.36
2022-11-24T11:52:13.619Z,99816.22
2022-11-24T11:54:47.329Z,99818.31
2022-11-24T11:57:39.134Z,99821.34
2022-11-24T12:00:19.272Z,99821.89
2022-11-24T12:03:15.833Z,99817.35
2022-11-24T12:06:08.976Z,99813.84
2022-11-24T12:09:32.937Z,99814.01
2022-11-24T12:12:32.438Z,99809.98
2022-11-24T12:15:16.100Z,99806.81
2022-11-24T12:17:55.238Z,99806.73
2022-11-24T12:20:55.969Z,99806.20
2022-11-24T12:23:43.297Z,99794.46
2022-11-24T12:26:38.393Z,99807.93
2022-11-24T12:29:47.950Z,99811.63
2022-11-24T12:32:35.080Z,99818.81
2022-11-24T12:35:18.300Z,99828.17
2022-11-24T12:37:53.756Z,99828.56
2022-11-24T12:40:22.209Z,99829.11
2022-11-24T12:42:57.977Z,99836.71
2022-11-24T12:45:40.298Z,99837.29
2022-11-24T12:48:21.065Z,99835.05
2022-11-24T12:50:52.130Z,99831.48
2022-11-24T12:53:34.185Z,99836.16
2022-11-24T12:56:10.336Z,99835.60
2022-11-24T12:58:51.007Z,99838.21
2022-11-24T13:01:31.117Z,99841.95
2022-11-24T13:04:30.974Z,99840.66
2022-11-24T13:07:21.097Z,99843.17
2022-11-24T13:10:46.605Z,99843.45
2022-11-24T13:13:15.169Z,99842.11
2022-11-24T13:16:07.137Z,99843.46
2022-11-24T13:19:08.616Z,99840.45
2022-11-24T13:21:37.158Z,99841.48
2022-11-24T13:24:07.420Z,99845.13
2022-11-24T13:26:41.517Z,99846.19
2022-11-24T13:29:29.319Z,99841.85
2022-11-24T13:32:07.219Z,99846.29
2022-11-24T13:34:42.896Z,99827.30
2022-11-24T13:37:34.667Z,99842.52
2022-11-24T13:40:13.760Z,99841.46
2022-11-24T13:43:08.620Z,99849.69
2022-11-24T13:45:40.831Z,99851.98
2022-11-24T13:48:19.099Z,99855.09
2022-11-24T13:50:51.301Z,99850.05
2022-11-24T13:53:38.884Z,99849.58
2022-11-24T13:56:13.789Z,99852.95
2022-11-24T13:58:47.074Z,99859.23
2022-11-24T14:01:24.118Z,99870.33
2022-11-24T14:04:43.254Z,99873.67
2022-11-24T14:07:15.342Z,99872.57
2022-11-24T14:09:52.648Z,99877.70
2022-11-24T14:12:26.067Z,99880.58
2022-11-24T14:15:13.142Z,99887.73
2022-11-24T14:17:41.545Z,99885.60
2022-11-24T14:20:22.599Z,99883.58
2022-11-24T14:22:52.103Z,99880.95
2022-11-24T14:25:30.202Z,99881.39
2022-11-24T14:28:00.866Z,99881.70
2022-11-24T14:30:29.847Z,99883.23
2022-11-24T14:33:00.807Z,99886.10
2022-11-24T14:35:29.247Z,99887.20
2022-11-24T14:37:58.653Z,99887.10
2022-11-24T14:40:48.662Z,99892.68
2022-11-24T14:43:26.024Z,99895.92
2022-11-24T14:45:58.734Z,99896.08
2022-11-24T14:48:30.864Z,99900.63
2022-11-24T14:51:11.766Z,99897.60
2022-11-24T14:53:45.261Z,99895.98
2022-11-24T14:56:28.067Z,99902.91
2022-11-24T14:58:58.180Z,99906.19
2022-11-24T15:01:26.664Z,99902.27
2022-11-24T15:04:32.509Z,99902.36
2022-11-24T15:07:29.379Z,99903.10
2022-11-24T15:10:00.937Z,99907.97
2022-11-24T15:12:35.049Z,99912.77
2022-11-24T15:15:15.397Z,99919.01
2022-11-24T15:17:50.729Z,99919.05
2022-11-24T15:20:42.059Z,99917.49
2022-11-24T15:23:24.985Z,99920.77
2022-11-24T15:25:55.402Z,99923.19
2022-11-24T15:28:28.273Z,99927.39
2022-11-24T15:31:01.402Z,99928.73
2022-11-24T15:33:30.869Z,99940.37
2022-11-24T15:36:00.302Z,99944.82
2022-11-24T15:38:29.068Z,99944.55
2022-11-24T15:41:00.328Z,99950.70
2022-11-24T15:43:40.840Z,99955.67
2022-11-24T15:46:10.789Z,99957.92
2022-11-24T15:48:40.006Z,99961.16
2022-11-24T15:51:14.321Z,99962.64
2022-11-24T15:53:46.377Z,99963.16
2022-11-24T15:56:29.404Z,99966.71
2022-11-24T15:58:57.853Z,99966.79
2022-11-24T16:01:32.105Z,99971.23
2022-11-24T16:04:02.111Z,99971.29
2022-11-24T16:06:30.707Z,99974.55
2022-11-24T16:08:59.392Z,99974.68
2022-11-24T16:11:28.310Z,99972.35
2022-11-24T16:13:57.114Z,99976.09
2022-11-24T16:16:26.145Z,99975.33
2022-11-24T16:18:55.056Z,99971.91
2022-11-24T16:21:24.432Z,99971.96
2022-11-24T16:23:53.456Z,99976.27
2022-11-24T16:26:22.878Z,99979.65
2022-11-24T16:28:52.254Z,99981.39
2022-11-24T16:31:21.100Z,99984.02
2022-11-24T16:33:50.950Z,99978.20
2022-11-24T16:36:20.876Z,99981.80
2022-11-24T16:38:49.640Z,99980.70
2022-11-24T16:41:18.155Z,99984.16
2022-11-24T16:43:47.938Z,99983.80
2022-11-24T16:46:21.017Z,99989.08
2022-11-24T16:48:53.747Z,99988.30
2022-11-24T16:51:31.376Z,99992.41
2022-11-24T16:54:07.436Z,99996.79
2022-11-24T16:56:38.255Z,100002.02
2022-11-24T16:59:08.565Z,100001.19
2022-11-24T17:01:41.111Z,100006.70
2022-11-24T17:04:12.721Z,100009.85
2022-11-24T17:06:43.510Z,100011.38
2022-11-24T17:09:15.090Z,100018.30
2022-11-24T17:11:46.271Z,100021.91
2022-11-24T17:14:17.184Z,100022.98
2022-11-24T17:16:47.881Z,100024.83
2022-11-24T17:19:18.347Z,100026.35
2022-11-24T17:21:49.323Z,100030.21
2022-11-24T17:24:20.254Z,100031.89
2022-11-24T17:26:52.526Z,100032.92
2022-11-24T17:29:23.731Z,100030.98
2022-11-24T17:31:54.243Z,100036.35
2022-11-24T17:34:24.478Z,100040.92
2022-11-24T17:36:55.474Z,100043.41
2022-11-24T17:39:25.919Z,100046.34
2022-11-24T17:41:55.418Z,100048.45
2022-11-24T17:44:25.017Z,100048.77
2022-11-24T17:46:55.134Z,100051.20
2022-11-24T17:49:24.556Z,100052.39
2022-11-24T17:51:55.805Z,100053.34
2022-11-24T17:54:56.638Z,100055.41
2022-11-24T17:57:16.900Z,100060.45
2022-11-24T17:59:47.551Z,100057.39
2022-11-24T18:02:16.631Z,100063.58
2022-11-24T18:04:45.938Z,100062.24
2022-11-24T18:07:14.851Z,100067.27
2022-11-24T18:09:44.577Z,100066.36
2022-11-24T18:12:16.414Z,100068.73
2022-11-24T18:14:46.941Z,100068.38
2022-11-24T18:17:16.138Z,100071.11
2022-11-24T18:19:45.011Z,100072.20
2022-11-24T18:22:14.121Z,100073.52
2022-11-24T18:24:42.709Z,100074.94
2022-11-24T18:27:12.696Z,100073.45
2022-11-24T18:29:42.028Z,100074.36
2022-11-24T18:32:11.667Z,100075.66
2022-11-24T18:34:40.633Z,100076.94
2022-11-24T18:37:13.929Z,100073.20
2022-11-24T18:39:43.281Z,100081.17
2022-11-24T18:42:17.178Z,100079.91
2022-11-24T18:44:52.495Z,100083.62
2022-11-24T18:47:23.307Z,100083.94
2022-11-24T18:49:52.818Z,100084.94
2022-11-24T18:52:23.031Z,100078.83
2022-11-24T18:54:52.355Z,100077.87
2022-11-24T18:57:21.809Z,100074.56
2022-11-24T18:59:51.874Z,100074.30
2022-11-24T19:02:21.233Z,100079.65
2022-11-24T19:04:51.415Z,100077.21
2022-11-24T19:07:21.375Z,100082.45
2022-11-24T19:09:51.234Z,100085.39
2022-11-24T19:12:20.905Z,100084.20
2022-11-24T19:14:50.981Z,100064.31
2022-11-24T19:17:21.683Z,100087.40
2022-11-24T19:19:52.282Z,100090.59
2022-11-24T19:22:22.421Z,100090.42
2022-11-24T19:24:51.849Z,100093.96
2022-11-24T19:27:22.390Z,100097.13
2022-11-24T19:29:55.260Z,100099.23
2022-11-24T19:32:24.699Z,100103.67
2022-11-24T19:34:54.055Z,100104.69
2022-11-24T19:37:23.887Z,100104.91
2022-11-24T19:39:54.095Z,100109.56
2022-11-24T19:42:23.602Z,100113.21
2022-11-24T19:44:56.433Z,100117.62
2022-11-24T19:47:28.094Z,100118.63
2022-11-24T19:49:57.478Z,100121.80
2022-11-24T19:52:30.645Z,100121.99
2022-11-24T19:55:00.324Z,100124.98
2022-11-24T19:57:29.426Z,100121.77
2022-11-24T19:59:58.510Z,100125.54
2022-11-24T20:02:30.144Z,100127.23
2022-11-24T20:04:58.852Z,100126.27
2022-11-24T20:07:28.547Z,100130.74
2022-11-24T20:10:00.820Z,100130.13
2022-11-24T20:12:35.371Z,100135.89
2022-11-24T20:15:05.292Z,100140.47
2022-11-24T20:17:34.897Z,100141.21
2022-11-24T20:20:04.803Z,100145.02
2022-11-24T20:22:35.296Z,100145.97
2022-11-24T20:25:05.971Z,100147.19
2022-11-24T20:27:36.498Z,100149.80
2022-11-24T20:30:07.302Z,100146.58
2022-11-24T20:32:37.372Z,100149.62
2022-11-24T20:35:07.021Z,100155.54
2022-11-24T20:37:35.744Z,100157.27
2022-11-24T20:40:06.984Z,100156.75
2022-11-24T20:42:37.723Z,100157.30
2022-11-24T20:45:07.328Z,100156.07
2022-11-24T20:47:37.243Z,100158.39
2022-11-24T20:50:06.639Z,100162.11
2022-11-24T20:52:35.889Z,100161.70
2022-11-24T20:55:07.350Z,100168.80
2022-11-24T20:57:36.958Z,100174.04
2022-11-24T21:00:07.036Z,100175.56
2022-11-24T21:02:36.288Z,100178.30
2022-11-24T21:05:07.032Z,100180.26
2022-11-24T21:07:36.167Z,100179.00
2022-11-24T21:10:07.379Z,100180.48
2022-11-24T21:12:36.598Z,100180.67
2022-11-24T21:15:08.145Z,100184.96
2022-11-24T21:17:40.427Z,100184.41
2022-11-24T21:20:11.370Z,100182.38
2022-11-24T21:22:41.177Z,100184.09
2022-11-24T21:25:09.855Z,100187.04
2022-11-24T21:27:38.845Z,100186.77
2022-11-24T21:30:09.662Z,100188.33
2022-11-24T21:32:38.475Z,100193.92
2022-11-24T21:35:07.874Z,100193.73
2022-11-24T21:37:36.691Z,100194.02
2022-11-24T21:40:06.374Z,100192.65
2022-11-24T21:42:35.073Z,100197.15
2022-11-24T21:45:04.573Z,100196.37
2022-11-24T21:47:34.174Z,100198.16
2022-11-24T21:50:04.287Z,100198.81
2022-11-24T21:52:33.477Z,100193.63
2022-11-24T21:55:01.868Z,100192.98
2022-11-24T21:57:30.752Z,100196.55
2022-11-24T21:59:59.401Z,100203.05
2022-11-24T22:02:28.037Z,100205.41
2022-11-24T22:04:56.738Z,100204.44
2022-11-24T22:07:25.133Z,100205.41
2022-11-24T22:09:53.491Z,100207.70
2022-11-24T22:12:21.713Z,100209.59
2022-11-24T22:14:50.220Z,100210.95
2022-11-24T22:17:18.509Z,100207.66
2022-11-24T22:19:47.799Z,100208.30
2022-11-24T22:22:16.395Z,100211.70
2022-11-24T22:24:44.870Z,100212.92
2022-11-24T22:27:16.440Z,100218.05
2022-11-24T22:29:50.047Z,100215.17
2022-11-24T22:32:22.591Z,100219.12
2022-11-24T22:34:50.981Z,100221.11
2022-11-24T22:37:19.369Z,100219.66
2022-11-24T22:39:47.940Z,100220.40
2022-11-24T22:42:17.138Z,100219.55
2022-11-24T22:44:45.824Z,100220.91
2022-11-24T22:47:15.228Z,100218.02
2022-11-24T22:49:43.718Z,100215.64
2022-11-24T22:52:14.999Z,100217.88
2022-11-24T22:54:43.438Z,100216.59
2022-11-24T22:57:13.974Z,100215.31
2022-11-24T22:59:42.446Z,100219.88
2022-11-24T23:02:10.930Z,100223.06
2022-11-24T23:04:39.217Z,100223.07
2022-11-24T23:07:07.678Z,100225.96
2022-11-24T23:09:36.066Z,100221.72
2022-11-24T23:12:05.163Z,100222.55
2022-11-24T23:14:33.923Z,100225.42
2022-11-24T23:17:02.633Z,100225.92
2022-11-24T23:19:30.910Z,100226.42
2022-11-24T23:21:59.502Z,100225.45
2022-11-24T23:24:27.868Z,100220.67
2022-11-24T23:26:56.141Z,100224.00
2022-11-24T23:29:24.428Z,100223.40
2022-11-24T23:31:52.896Z,100225.28
2022-11-24T23:34:21.499Z,100229.33
2022-11-24T23:36:49.878Z,100232.58
2022-11-24T23:39:18.254Z,100231.82
2022-11-24T23:41:46.631Z,100232.14
2022-11-24T23:44:15.626Z,100236.20
2022-11-24T23:46:43.803Z,100239.17
2022-11-24T23:49:12.273Z,100237.08
2022-11-24T23:51:42.298Z,100240.39
2022-11-24T23:54:10.480Z,100238.84
2022-11-24T23:56:38.590Z,100238.00
2022-11-24T23:59:06.738Z,100236.44
